Terminal Aerodrome Forecast
Issued by NWS Salt Lake City, UT

Home | Current Version | Previous Version | Text Only | Print | Product List | Glossary On
Versions: 1 2 3 4 5 6 7 8 9 10 11 12 13 14 15 16 17 18 19 20 21 22 23 24 25 26 27 28 29 30 31
000
FTUS45 KSLC 260307 AAB
TAFSLC
TAF AMD
KSLC 260307Z 2603/2706 34005KT P6SM SCT040 BKN080
     FM261000 15006KT 6SM BCFG SCT008
     FM261400 14006KT P6SM SCT120
     FM262100 33007KT P6SM SCT120=

USA.gov is the U.S. government's official web portal to all federal, state and local government web resources and services.